sensor_id;sensor_type;location;lat;lon;timestamp;pressure;altitude;pressure_sealevel;temperature;humidity
73151;BME280;61354;50.758;6.106;2024-03-07T00:01:37;99859.97;;;6.89;86.14
73151;BME280;61354;50.758;6.106;2024-03-07T00:04:21;99851.25;;;7.04;86.83
73151;BME280;61354;50.758;6.106;2024-03-07T00:07:05;99854.78;;;6.96;87.08
73151;BME280;61354;50.758;6.106;2024-03-07T00:09:51;99856.59;;;6.47;89.21
73151;BME280;61354;50.758;6.106;2024-03-07T00:12:38;99856.47;;;6.52;89.04
73151;BME280;61354;50.758;6.106;2024-03-07T00:15:24;99850.25;;;6.69;88.10
73151;BME280;61354;50.758;6.106;2024-03-07T00:18:08;99851.69;;;6.66;87.70
73151;BME280;61354;50.758;6.106;2024-03-07T00:20:54;99849.66;;;6.58;87.55
73151;BME280;61354;50.758;6.106;2024-03-07T00:23:38;99850.41;;;6.50;88.87
73151;BME280;61354;50.758;6.106;2024-03-07T00:26:22;99852.13;;;6.60;88.82
73151;BME280;61354;50.758;6.106;2024-03-07T00:29:06;99841.00;;;6.73;88.24
73151;BME280;61354;50.758;6.106;2024-03-07T00:31:50;99852.06;;;6.73;87.16
73151;BME280;61354;50.758;6.106;2024-03-07T00:34:34;99848.44;;;6.64;88.41
73151;BME280;61354;50.758;6.106;2024-03-07T00:37:18;99841.97;;;6.69;88.19
73151;BME280;61354;50.758;6.106;2024-03-07T00:40:03;99847.78;;;6.67;86.63
73151;BME280;61354;50.758;6.106;2024-03-07T00:42:46;99846.03;;;6.71;86.69
73151;BME280;61354;50.758;6.106;2024-03-07T00:45:30;99840.63;;;6.66;87.00
73151;BME280;61354;50.758;6.106;2024-03-07T00:48:16;99841.63;;;6.70;86.32
73151;BME280;61354;50.758;6.106;2024-03-07T00:51:00;99835.28;;;6.39;88.48
73151;BME280;61354;50.758;6.106;2024-03-07T00:53:44;99836.44;;;6.46;88.34
73151;BME280;61354;50.758;6.106;2024-03-07T00:56:28;99831.00;;;6.33;87.29
73151;BME280;61354;50.758;6.106;2024-03-07T00:59:12;99828.22;;;6.33;86.94
73151;BME280;61354;50.758;6.106;2024-03-07T01:01:57;99828.00;;;6.43;86.55
73151;BME280;61354;50.758;6.106;2024-03-07T01:04:40;99829.09;;;6.42;86.05
73151;BME280;61354;50.758;6.106;2024-03-07T01:07:25;99828.09;;;6.38;86.41
73151;BME280;61354;50.758;6.106;2024-03-07T01:10:09;99831.50;;;6.35;87.13
73151;BME280;61354;50.758;6.106;2024-03-07T01:12:53;99831.19;;;6.36;87.59
73151;BME280;61354;50.758;6.106;2024-03-07T01:15:48;99824.59;;;6.46;87.27
73151;BME280;61354;50.758;6.106;2024-03-07T01:18:32;99822.97;;;6.45;86.89
73151;BME280;61354;50.758;6.106;2024-03-07T01:21:17;99818.72;;;6.39;87.13
73151;BME280;61354;50.758;6.106;2024-03-07T01:24:01;99823.41;;;6.38;86.51
73151;BME280;61354;50.758;6.106;2024-03-07T01:26:46;99821.56;;;6.34;86.83
73151;BME280;61354;50.758;6.106;2024-03-07T01:29:30;99821.56;;;6.34;88.15
73151;BME280;61354;50.758;6.106;2024-03-07T01:32:14;99822.22;;;6.31;87.46
73151;BME280;61354;50.758;6.106;2024-03-07T01:34:58;99818.56;;;6.21;88.42
73151;BME280;61354;50.758;6.106;2024-03-07T01:37:42;99811.41;;;6.20;88.88
73151;BME280;61354;50.758;6.106;2024-03-07T01:40:26;99813.81;;;6.36;86.70
73151;BME280;61354;50.758;6.106;2024-03-07T01:43:10;99804.97;;;6.25;87.29
73151;BME280;61354;50.758;6.106;2024-03-07T01:45:56;99811.63;;;6.24;86.69
73151;BME280;61354;50.758;6.106;2024-03-07T01:48:42;99806.03;;;6.15;88.04
73151;BME280;61354;50.758;6.106;2024-03-07T01:51:27;99807.78;;;6.11;87.33
73151;BME280;61354;50.758;6.106;2024-03-07T01:54:11;99806.53;;;6.17;87.04
73151;BME280;61354;50.758;6.106;2024-03-07T01:56:56;99802.00;;;6.21;87.74
73151;BME280;61354;50.758;6.106;2024-03-07T01:59:40;99798.38;;;6.12;87.48
73151;BME280;61354;50.758;6.106;2024-03-07T02:02:24;99794.31;;;6.10;87.17
73151;BME280;61354;50.758;6.106;2024-03-07T02:05:08;99792.72;;;5.95;88.27
73151;BME280;61354;50.758;6.106;2024-03-07T02:07:52;99783.09;;;6.06;87.93
73151;BME280;61354;50.758;6.106;2024-03-07T02:10:36;99782.84;;;5.94;87.97
73151;BME280;61354;50.758;6.106;2024-03-07T02:13:20;99780.66;;;5.91;87.50
73151;BME280;61354;50.758;6.106;2024-03-07T02:16:04;99782.41;;;5.87;87.63
73151;BME280;61354;50.758;6.106;2024-03-07T02:18:49;99779.66;;;5.87;87.27
73151;BME280;61354;50.758;6.106;2024-03-07T02:21:34;99775.56;;;5.84;86.71
73151;BME280;61354;50.758;6.106;2024-03-07T02:24:17;99772.69;;;5.53;87.79
73151;BME280;61354;50.758;6.106;2024-03-07T02:27:01;99771.13;;;5.74;87.10
73151;BME280;61354;50.758;6.106;2024-03-07T02:29:45;99760.22;;;5.69;86.57
73151;BME280;61354;50.758;6.106;2024-03-07T02:32:31;99763.56;;;5.66;86.92
73151;BME280;61354;50.758;6.106;2024-03-07T02:35:15;99760.22;;;5.69;87.36
73151;BME280;61354;50.758;6.106;2024-03-07T02:37:59;99757.22;;;5.80;87.19
73151;BME280;61354;50.758;6.106;2024-03-07T02:40:43;99756.13;;;5.67;87.75
73151;BME280;61354;50.758;6.106;2024-03-07T02:43:27;99750.63;;;5.67;87.88
73151;BME280;61354;50.758;6.106;2024-03-07T02:46:11;99749.31;;;5.64;89.02
73151;BME280;61354;50.758;6.106;2024-03-07T02:48:55;99751.13;;;5.69;87.56
73151;BME280;61354;50.758;6.106;2024-03-07T02:51:39;99749.94;;;5.61;87.63
73151;BME280;61354;50.758;6.106;2024-03-07T02:54:25;99751.97;;;5.56;87.58
73151;BME280;61354;50.758;6.106;2024-03-07T02:57:09;99748.31;;;5.60;88.31
73151;BME280;61354;50.758;6.106;2024-03-07T02:59:55;99747.63;;;5.41;88.48
73151;BME280;61354;50.758;6.106;2024-03-07T03:02:40;99748.75;;;5.40;87.83
73151;BME280;61354;50.758;6.106;2024-03-07T03:05:25;99746.06;;;5.35;88.96
73151;BME280;61354;50.758;6.106;2024-03-07T03:08:09;99745.19;;;5.39;88.54
73151;BME280;61354;50.758;6.106;2024-03-07T03:10:54;99748.34;;;5.33;89.52
73151;BME280;61354;50.758;6.106;2024-03-07T03:13:40;99753.63;;;5.43;90.23
73151;BME280;61354;50.758;6.106;2024-03-07T03:16:24;99741.59;;;5.53;88.57
73151;BME280;61354;50.758;6.106;2024-03-07T03:19:08;99738.94;;;5.47;91.40
73151;BME280;61354;50.758;6.106;2024-03-07T03:21:52;99737.38;;;5.55;89.20
73151;BME280;61354;50.758;6.106;2024-03-07T03:24:36;99738.91;;;5.61;88.63
73151;BME280;61354;50.758;6.106;2024-03-07T03:27:20;99739.91;;;5.65;87.90
73151;BME280;61354;50.758;6.106;2024-03-07T03:30:06;99732.59;;;5.47;88.19
73151;BME280;61354;50.758;6.106;2024-03-07T03:32:50;99729.97;;;5.42;88.74
73151;BME280;61354;50.758;6.106;2024-03-07T03:35:35;99733.03;;;5.27;87.39
73151;BME280;61354;50.758;6.106;2024-03-07T03:38:18;99728.66;;;5.26;88.51
73151;BME280;61354;50.758;6.106;2024-03-07T03:41:03;99724.50;;;5.28;88.66
73151;BME280;61354;50.758;6.106;2024-03-07T03:43:48;99724.44;;;5.42;88.30
73151;BME280;61354;50.758;6.106;2024-03-07T03:46:32;99725.38;;;5.37;88.18
73151;BME280;61354;50.758;6.106;2024-03-07T03:49:16;99727.50;;;5.54;87.79
73151;BME280;61354;50.758;6.106;2024-03-07T03:52:00;99727.50;;;5.54;87.01
73151;BME280;61354;50.758;6.106;2024-03-07T03:54:45;99728.53;;;5.44;87.42
73151;BME280;61354;50.758;6.106;2024-03-07T03:57:29;99729.78;;;5.24;87.95
73151;BME280;61354;50.758;6.106;2024-03-07T04:00:16;99731.09;;;5.41;87.40
73151;BME280;61354;50.758;6.106;2024-03-07T04:03:00;99729.31;;;5.22;87.55
73151;BME280;61354;50.758;6.106;2024-03-07T04:05:44;99735.91;;;5.35;87.19
73151;BME280;61354;50.758;6.106;2024-03-07T04:08:28;99724.41;;;5.19;87.66
73151;BME280;61354;50.758;6.106;2024-03-07T04:11:12;99733.78;;;5.18;88.18
73151;BME280;61354;50.758;6.106;2024-03-07T04:13:56;99739.38;;;5.13;88.40
73151;BME280;61354;50.758;6.106;2024-03-07T04:16:40;99739.00;;;5.06;89.34
73151;BME280;61354;50.758;6.106;2024-03-07T04:19:24;99732.06;;;5.22;88.85
73151;BME280;61354;50.758;6.106;2024-03-07T04:22:09;99732.66;;;5.06;90.91
73151;BME280;61354;50.758;6.106;2024-03-07T04:24:53;99720.19;;;5.36;89.57
73151;BME280;61354;50.758;6.106;2024-03-07T04:27:38;99726.13;;;5.29;88.96
73151;BME280;61354;50.758;6.106;2024-03-07T04:30:23;99724.16;;;5.30;88.32
73151;BME280;61354;50.758;6.106;2024-03-07T04:33:07;99718.53;;;5.35;88.07
73151;BME280;61354;50.758;6.106;2024-03-07T04:35:52;99719.84;;;5.51;88.20
73151;BME280;61354;50.758;6.106;2024-03-07T04:38:36;99723.03;;;5.44;87.95
73151;BME280;61354;50.758;6.106;2024-03-07T04:41:20;99719.28;;;5.27;89.30
73151;BME280;61354;50.758;6.106;2024-03-07T04:44:04;99719.78;;;5.29;88.65
73151;BME280;61354;50.758;6.106;2024-03-07T04:46:48;99709.19;;;5.36;87.98
73151;BME280;61354;50.758;6.106;2024-03-07T04:49:33;99713.16;;;5.43;87.29
73151;BME280;61354;50.758;6.106;2024-03-07T04:52:18;99709.56;;;5.43;86.98
73151;BME280;61354;50.758;6.106;2024-03-07T04:55:02;99703.16;;;5.34;87.99
73151;BME280;61354;50.758;6.106;2024-03-07T04:57:46;99699.09;;;5.31;87.75
73151;BME280;61354;50.758;6.106;2024-03-07T05:00:30;99702.88;;;5.35;88.05
73151;BME280;61354;50.758;6.106;2024-03-07T05:03:14;99716.72;;;5.30;87.44
73151;BME280;61354;50.758;6.106;2024-03-07T05:05:58;99708.97;;;5.32;87.78
73151;BME280;61354;50.758;6.106;2024-03-07T05:08:44;99706.91;;;5.38;88.11
73151;BME280;61354;50.758;6.106;2024-03-07T05:11:32;99706.63;;;5.26;88.29
73151;BME280;61354;50.758;6.106;2024-03-07T05:14:17;99708.38;;;5.21;88.22
73151;BME280;61354;50.758;6.106;2024-03-07T05:17:00;99701.84;;;5.17;89.10
73151;BME280;61354;50.758;6.106;2024-03-07T05:19:52;99701.84;;;5.17;89.54
73151;BME280;61354;50.758;6.106;2024-03-07T05:22:36;99703.31;;;5.15;89.98
73151;BME280;61354;50.758;6.106;2024-03-07T05:25:40;99709.22;;;5.08;89.85
73151;BME280;61354;50.758;6.106;2024-03-07T05:28:27;99702.91;;;5.08;90.01
73151;BME280;61354;50.758;6.106;2024-03-07T05:31:11;99705.34;;;5.23;89.58
73151;BME280;61354;50.758;6.106;2024-03-07T05:33:56;99700.88;;;4.99;90.87
73151;BME280;61354;50.758;6.106;2024-03-07T05:36:40;99703.28;;;5.01;89.30
73151;BME280;61354;50.758;6.106;2024-03-07T05:39:28;99698.00;;;5.18;88.17
73151;BME280;61354;50.758;6.106;2024-03-07T05:42:13;99699.22;;;5.12;88.74
73151;BME280;61354;50.758;6.106;2024-03-07T05:44:57;99696.16;;;5.00;89.30
73151;BME280;61354;50.758;6.106;2024-03-07T05:47:41;99693.81;;;5.07;89.48
73151;BME280;61354;50.758;6.106;2024-03-07T05:50:25;99706.56;;;4.62;93.01
73151;BME280;61354;50.758;6.106;2024-03-07T05:53:09;99696.50;;;4.98;91.25
73151;BME280;61354;50.758;6.106;2024-03-07T05:55:54;99698.91;;;5.00;90.95
73151;BME280;61354;50.758;6.106;2024-03-07T05:58:38;99705.34;;;4.95;91.64
73151;BME280;61354;50.758;6.106;2024-03-07T06:01:23;99693.94;;;5.02;91.23
73151;BME280;61354;50.758;6.106;2024-03-07T06:04:09;99700.47;;;5.06;90.41
73151;BME280;61354;50.758;6.106;2024-03-07T06:06:54;99702.69;;;5.04;91.44
73151;BME280;61354;50.758;6.106;2024-03-07T06:09:38;99691.47;;;5.14;90.66
73151;BME280;61354;50.758;6.106;2024-03-07T06:12:22;99696.06;;;5.05;90.74
73151;BME280;61354;50.758;6.106;2024-03-07T06:15:07;99685.75;;;5.24;90.33
73151;BME280;61354;50.758;6.106;2024-03-07T06:17:53;99684.94;;;5.24;89.84
73151;BME280;61354;50.758;6.106;2024-03-07T06:20:37;99684.31;;;5.13;90.68
73151;BME280;61354;50.758;6.106;2024-03-07T06:23:22;99702.41;;;4.92;90.22
73151;BME280;61354;50.758;6.106;2024-03-07T06:26:06;99687.59;;;5.02;90.35
73151;BME280;61354;50.758;6.106;2024-03-07T06:28:56;99699.34;;;5.07;89.95
73151;BME280;61354;50.758;6.106;2024-03-07T06:31:40;99698.00;;;5.05;90.37
73151;BME280;61354;50.758;6.106;2024-03-07T06:34:27;99699.81;;;5.09;90.62
73151;BME280;61354;50.758;6.106;2024-03-07T06:37:13;99695.34;;;5.13;91.18
73151;BME280;61354;50.758;6.106;2024-03-07T06:39:57;99688.50;;;5.24;90.38
73151;BME280;61354;50.758;6.106;2024-03-07T06:42:40;99691.72;;;5.27;90.19
73151;BME280;61354;50.758;6.106;2024-03-07T06:45:25;99698.38;;;5.26;89.51
73151;BME280;61354;50.758;6.106;2024-03-07T06:48:09;99689.63;;;5.23;90.79
73151;BME280;61354;50.758;6.106;2024-03-07T06:50:53;99691.72;;;5.27;90.08
73151;BME280;61354;50.758;6.106;2024-03-07T06:53:37;99693.78;;;5.21;90.21
73151;BME280;61354;50.758;6.106;2024-03-07T06:56:22;99693.75;;;5.35;89.35
73151;BME280;61354;50.758;6.106;2024-03-07T06:59:08;99693.16;;;5.38;89.59
73151;BME280;61354;50.758;6.106;2024-03-07T07:01:52;99695.03;;;5.51;89.06
73151;BME280;61354;50.758;6.106;2024-03-07T07:04:37;99688.66;;;5.42;89.38
73151;BME280;61354;50.758;6.106;2024-03-07T07:07:31;99694.09;;;5.33;91.43
73151;BME280;61354;50.758;6.106;2024-03-07T07:10:15;99690.38;;;5.52;90.36
73151;BME280;61354;50.758;6.106;2024-03-07T07:12:59;99698.13;;;5.49;90.66
73151;BME280;61354;50.758;6.106;2024-03-07T07:15:43;99693.19;;;5.60;91.51
73151;BME280;61354;50.758;6.106;2024-03-07T07:18:30;99691.69;;;5.54;90.89
73151;BME280;61354;50.758;6.106;2024-03-07T07:21:13;99693.63;;;5.54;91.84
73151;BME280;61354;50.758;6.106;2024-03-07T07:23:59;99687.03;;;5.63;91.23
73151;BME280;61354;50.758;6.106;2024-03-07T07:26:43;99687.06;;;5.86;90.94
73151;BME280;61354;50.758;6.106;2024-03-07T07:29:27;99684.72;;;5.93;91.26
73151;BME280;61354;50.758;6.106;2024-03-07T07:32:11;99681.44;;;5.91;92.16
73151;BME280;61354;50.758;6.106;2024-03-07T07:34:55;99680.56;;;6.04;91.15
73151;BME280;61354;50.758;6.106;2024-03-07T07:37:50;99680.91;;;5.89;92.20
73151;BME280;61354;50.758;6.106;2024-03-07T07:40:39;99676.69;;;6.05;92.26
73151;BME280;61354;50.758;6.106;2024-03-07T07:43:24;99682.94;;;6.19;91.90
73151;BME280;61354;50.758;6.106;2024-03-07T07:46:08;99675.91;;;6.13;92.72
73151;BME280;61354;50.758;6.106;2024-03-07T07:48:52;99672.28;;;6.27;91.89
73151;BME280;61354;50.758;6.106;2024-03-07T07:51:37;99664.34;;;6.34;91.50
73151;BME280;61354;50.758;6.106;2024-03-07T07:54:21;99667.03;;;6.47;91.14
73151;BME280;61354;50.758;6.106;2024-03-07T07:57:05;99660.41;;;6.57;90.55
73151;BME280;61354;50.758;6.106;2024-03-07T07:59:49;99664.31;;;6.56;90.19
73151;BME280;61354;50.758;6.106;2024-03-07T08:02:33;99661.03;;;6.54;91.80
73151;BME280;61354;50.758;6.106;2024-03-07T08:05:19;99665.00;;;6.31;92.79
73151;BME280;61354;50.758;6.106;2024-03-07T08:08:07;99664.78;;;6.58;91.66
73151;BME280;61354;50.758;6.106;2024-03-07T08:10:52;99658.31;;;6.63;92.21
73151;BME280;61354;50.758;6.106;2024-03-07T08:13:36;99658.41;;;6.80;90.94
73151;BME280;61354;50.758;6.106;2024-03-07T08:16:20;99662.50;;;7.00;90.67
73151;BME280;61354;50.758;6.106;2024-03-07T08:19:04;99650.81;;;7.03;90.32
73151;BME280;61354;50.758;6.106;2024-03-07T08:21:47;99648.41;;;7.19;90.47
73151;BME280;61354;50.758;6.106;2024-03-07T08:24:31;99655.34;;;6.99;91.92
73151;BME280;61354;50.758;6.106;2024-03-07T08:27:15;99644.34;;;7.16;91.41
73151;BME280;61354;50.758;6.106;2024-03-07T08:30:00;99647.44;;;7.32;90.62
73151;BME280;61354;50.758;6.106;2024-03-07T08:32:45;99651.53;;;7.52;89.83
73151;BME280;61354;50.758;6.106;2024-03-07T08:35:29;99646.78;;;7.18;90.46
73151;BME280;61354;50.758;6.106;2024-03-07T08:38:13;99644.38;;;7.51;90.54
73151;BME280;61354;50.758;6.106;2024-03-07T08:40:57;99641.09;;;7.32;91.03
73151;BME280;61354;50.758;6.106;2024-03-07T08:43:54;99637.53;;;7.40;89.28
73151;BME280;61354;50.758;6.106;2024-03-07T08:46:38;99639.66;;;7.52;88.98
73151;BME280;61354;50.758;6.106;2024-03-07T08:49:22;99644.69;;;7.67;86.03
73151;BME280;61354;50.758;6.106;2024-03-07T08:52:06;99631.69;;;7.67;84.00
73151;BME280;61354;50.758;6.106;2024-03-07T08:54:51;99637.84;;;7.82;83.16
73151;BME280;61354;50.758;6.106;2024-03-07T08:57:35;99636.19;;;7.98;81.29
73151;BME280;61354;50.758;6.106;2024-03-07T09:00:23;99639.31;;;7.79;81.49
73151;BME280;61354;50.758;6.106;2024-03-07T09:03:07;99636.69;;;7.91;79.28
73151;BME280;61354;50.758;6.106;2024-03-07T09:05:54;99628.53;;;7.95;78.35
73151;BME280;61354;50.758;6.106;2024-03-07T09:08:39;99637.50;;;7.92;78.79
73151;BME280;61354;50.758;6.106;2024-03-07T09:11:23;99636.63;;;8.26;76.74
73151;BME280;61354;50.758;6.106;2024-03-07T09:14:07;99637.69;;;8.51;76.91
73151;BME280;61354;50.758;6.106;2024-03-07T09:16:53;99636.34;;;8.57;77.31
73151;BME280;61354;50.758;6.106;2024-03-07T09:19:38;99627.78;;;8.33;76.50
73151;BME280;61354;50.758;6.106;2024-03-07T09:22:22;99636.00;;;8.12;74.67
73151;BME280;61354;50.758;6.106;2024-03-07T09:25:06;99634.97;;;8.25;74.89
73151;BME280;61354;50.758;6.106;2024-03-07T09:27:50;99627.19;;;8.18;73.79
73151;BME280;61354;50.758;6.106;2024-03-07T09:30:34;99628.13;;;8.31;75.27
73151;BME280;61354;50.758;6.106;2024-03-07T09:33:21;99627.09;;;8.53;71.28
73151;BME280;61354;50.758;6.106;2024-03-07T09:36:05;99623.38;;;8.49;71.96
73151;BME280;61354;50.758;6.106;2024-03-07T09:38:50;99619.19;;;8.34;72.85
73151;BME280;61354;50.758;6.106;2024-03-07T09:41:35;99624.25;;;8.70;72.15
73151;BME280;61354;50.758;6.106;2024-03-07T09:44:21;99620.13;;;8.47;72.76
73151;BME280;61354;50.758;6.106;2024-03-07T09:47:09;99621.16;;;8.72;73.41
73151;BME280;61354;50.758;6.106;2024-03-07T09:49:55;99612.41;;;8.91;71.20
73151;BME280;61354;50.758;6.106;2024-03-07T09:52:41;99617.56;;;9.01;70.72
73151;BME280;61354;50.758;6.106;2024-03-07T09:55:27;99616.63;;;8.97;70.07
73151;BME280;61354;50.758;6.106;2024-03-07T09:58:37;99626.44;;;8.86;69.69
73151;BME280;61354;50.758;6.106;2024-03-07T10:01:25;99621.34;;;8.96;67.78
73151;BME280;61354;50.758;6.106;2024-03-07T10:04:13;99623.88;;;8.81;68.14
73151;BME280;61354;50.758;6.106;2024-03-07T10:06:58;99627.25;;;8.86;67.80
73151;BME280;61354;50.758;6.106;2024-03-07T10:09:42;99621.75;;;9.07;67.88
73151;BME280;61354;50.758;6.106;2024-03-07T10:12:26;99622.69;;;9.11;66.40
73151;BME280;61354;50.758;6.106;2024-03-07T10:15:10;99620.78;;;9.03;65.62
73151;BME280;61354;50.758;6.106;2024-03-07T10:17:57;99617.84;;;9.50;65.11
73151;BME280;61354;50.758;6.106;2024-03-07T10:20:44;99617.22;;;9.65;64.55
73151;BME280;61354;50.758;6.106;2024-03-07T10:23:28;99618.78;;;9.75;63.07
73151;BME280;61354;50.758;6.106;2024-03-07T10:26:12;99617.97;;;9.54;65.30
73151;BME280;61354;50.758;6.106;2024-03-07T10:28:56;99613.16;;;9.84;64.05
73151;BME280;61354;50.758;6.106;2024-03-07T10:31:41;99609.22;;;9.85;64.56
73151;BME280;61354;50.758;6.106;2024-03-07T10:34:25;99606.13;;;9.99;64.17
73151;BME280;61354;50.758;6.106;2024-03-07T10:37:09;99602.78;;;9.93;64.63
73151;BME280;61354;50.758;6.106;2024-03-07T10:39:53;99601.16;;;9.92;64.51
73151;BME280;61354;50.758;6.106;2024-03-07T10:42:39;99602.63;;;9.56;64.46
73151;BME280;61354;50.758;6.106;2024-03-07T10:45:29;99600.78;;;9.60;64.19
73151;BME280;61354;50.758;6.106;2024-03-07T10:48:16;99603.44;;;9.57;64.40
73151;BME280;61354;50.758;6.106;2024-03-07T11:01:10;99582.72;;;9.21;63.38
73151;BME280;61354;50.758;6.106;2024-03-07T11:03:58;99588.50;;;9.07;61.32
73151;BME280;61354;50.758;6.106;2024-03-07T11:06:42;99581.84;;;9.08;61.74
73151;BME280;61354;50.758;6.106;2024-03-07T11:09:29;99579.75;;;9.26;61.87
73151;BME280;61354;50.758;6.106;2024-03-07T11:12:17;99573.63;;;9.12;63.43
73151;BME280;61354;50.758;6.106;2024-03-07T11:15:02;99585.94;;;9.02;63.44
73151;BME280;61354;50.758;6.106;2024-03-07T11:17:50;99567.81;;;9.46;61.75
73151;BME280;61354;50.758;6.106;2024-03-07T11:20:36;99562.50;;;9.75;59.95
73151;BME280;61354;50.758;6.106;2024-03-07T11:23:31;99563.81;;;9.89;59.49
73151;BME280;61354;50.758;6.106;2024-03-07T11:26:25;99562.31;;;9.92;59.65
73151;BME280;61354;50.758;6.106;2024-03-07T11:29:47;99549.69;;;9.49;60.00
73151;BME280;61354;50.758;6.106;2024-03-07T11:32:34;99557.03;;;9.66;58.92
73151;BME280;61354;50.758;6.106;2024-03-07T11:35:19;99564.88;;;9.97;58.83
73151;BME280;61354;50.758;6.106;2024-03-07T11:38:11;99557.00;;;9.99;57.28
73151;BME280;61354;50.758;6.106;2024-03-07T11:40:59;99556.78;;;9.92;58.39
73151;BME280;61354;50.758;6.106;2024-03-07T11:43:46;99550.47;;;9.70;58.30
73151;BME280;61354;50.758;6.106;2024-03-07T11:46:31;99535.34;;;9.80;58.02
73151;BME280;61354;50.758;6.106;2024-03-07T11:49:16;99533.78;;;9.91;57.99
73151;BME280;61354;50.758;6.106;2024-03-07T11:52:00;99540.78;;;9.77;57.55
73151;BME280;61354;50.758;6.106;2024-03-07T11:54:48;99534.75;;;9.62;57.60
73151;BME280;61354;50.758;6.106;2024-03-07T11:57:32;99532.59;;;9.80;58.71
73151;BME280;61354;50.758;6.106;2024-03-07T12:00:20;99528.50;;;9.65;57.67
73151;BME280;61354;50.758;6.106;2024-03-07T12:03:14;99521.34;;;9.77;57.54
73151;BME280;61354;50.758;6.106;2024-03-07T12:06:00;99509.47;;;9.76;57.27
73151;BME280;61354;50.758;6.106;2024-03-07T12:08:45;99504.47;;;9.69;57.39
73151;BME280;61354;50.758;6.106;2024-03-07T12:11:29;99512.09;;;9.73;57.77
73151;BME280;61354;50.758;6.106;2024-03-07T12:14:15;99499.19;;;9.89;57.12
73151;BME280;61354;50.758;6.106;2024-03-07T12:17:01;99496.88;;;10.03;56.72
73151;BME280;61354;50.758;6.106;2024-03-07T12:19:48;99494.81;;;9.88;56.97
73151;BME280;61354;50.758;6.106;2024-03-07T12:22:35;99481.50;;;9.93;56.44
73151;BME280;61354;50.758;6.106;2024-03-07T12:25:20;99484.41;;;9.85;57.24
73151;BME280;61354;50.758;6.106;2024-03-07T12:28:12;99484.53;;;10.01;56.87
73151;BME280;61354;50.758;6.106;2024-03-07T12:31:01;99479.31;;;10.11;56.30
73151;BME280;61354;50.758;6.106;2024-03-07T12:33:49;99478.88;;;10.09;55.08
73151;BME280;61354;50.758;6.106;2024-03-07T12:36:38;99478.41;;;10.07;55.89
73151;BME280;61354;50.758;6.106;2024-03-07T12:39:34;99471.22;;;9.94;55.47
73151;BME280;61354;50.758;6.106;2024-03-07T12:42:29;99463.59;;;10.15;55.64
73151;BME280;61354;50.758;6.106;2024-03-07T12:45:16;99461.06;;;10.23;55.74
73151;BME280;61354;50.758;6.106;2024-03-07T12:48:01;99455.78;;;10.30;56.72
73151;BME280;61354;50.758;6.106;2024-03-07T12:50:48;99446.25;;;10.55;55.27
73151;BME280;61354;50.758;6.106;2024-03-07T12:53:39;99440.84;;;10.34;54.91
73151;BME280;61354;50.758;6.106;2024-03-07T12:56:22;99442.41;;;10.60;54.62
73151;BME280;61354;50.758;6.106;2024-03-07T12:59:06;99436.28;;;10.66;53.97
73151;BME280;61354;50.758;6.106;2024-03-07T13:01:52;99434.81;;;10.85;54.47
73151;BME280;61354;50.758;6.106;2024-03-07T13:04:38;99428.88;;;10.70;53.56
73151;BME280;61354;50.758;6.106;2024-03-07T13:07:22;99425.56;;;10.81;54.72
73151;BME280;61354;50.758;6.106;2024-03-07T13:10:07;99425.94;;;10.79;53.74
73151;BME280;61354;50.758;6.106;2024-03-07T13:12:51;99423.16;;;10.79;54.92
73151;BME280;61354;50.758;6.106;2024-03-07T13:15:35;99428.34;;;10.81;54.29
73151;BME280;61354;50.758;6.106;2024-03-07T13:18:21;99420.41;;;11.07;53.79
73151;BME280;61354;50.758;6.106;2024-03-07T13:21:05;99418.31;;;11.04;53.28
73151;BME280;61354;50.758;6.106;2024-03-07T13:23:50;99415.34;;;10.97;53.10
73151;BME280;61354;50.758;6.106;2024-03-07T13:26:35;99409.47;;;11.14;54.05
73151;BME280;61354;50.758;6.106;2024-03-07T13:29:20;99417.16;;;11.05;54.15
73151;BME280;61354;50.758;6.106;2024-03-07T13:32:08;99413.94;;;11.19;53.19
73151;BME280;61354;50.758;6.106;2024-03-07T13:34:52;99417.47;;;11.32;53.43
73151;BME280;61354;50.758;6.106;2024-03-07T13:37:35;99406.50;;;11.07;53.49
73151;BME280;61354;50.758;6.106;2024-03-07T13:40:40;99407.38;;;11.11;54.39
73151;BME280;61354;50.758;6.106;2024-03-07T13:43:39;99403.78;;;10.95;53.56
73151;BME280;61354;50.758;6.106;2024-03-07T13:46:38;99409.91;;;10.60;54.06
73151;BME280;61354;50.758;6.106;2024-03-07T13:49:38;99405.50;;;11.15;53.98
73151;BME280;61354;50.758;6.106;2024-03-07T13:52:38;99396.69;;;10.98;53.66
73151;BME280;61354;50.758;6.106;2024-03-07T13:55:48;99396.22;;;11.39;53.01
73151;BME280;61354;50.758;6.106;2024-03-07T14:02:01;99389.72;;;11.79;53.65
73151;BME280;61354;50.758;6.106;2024-03-07T14:08:53;99381.53;;;11.39;52.83
73151;BME280;61354;50.758;6.106;2024-03-07T14:25:19;99378.72;;;11.07;53.00
73151;BME280;61354;50.758;6.106;2024-03-07T14:31:39;99376.69;;;11.52;52.64
73151;BME280;61354;50.758;6.106;2024-03-07T14:34:36;99381.34;;;11.48;52.90
73151;BME280;61354;50.758;6.106;2024-03-07T14:37:23;99365.47;;;11.16;52.44
73151;BME280;61354;50.758;6.106;2024-03-07T14:40:12;99369.59;;;10.79;53.21
73151;BME280;61354;50.758;6.106;2024-03-07T14:43:01;99374.97;;;10.87;52.95
73151;BME280;61354;50.758;6.106;2024-03-07T14:45:49;99371.34;;;10.99;52.52
73151;BME280;61354;50.758;6.106;2024-03-07T14:48:33;99364.28;;;11.17;52.91
73151;BME280;61354;50.758;6.106;2024-03-07T14:51:18;99357.63;;;11.06;54.13
73151;BME280;61354;50.758;6.106;2024-03-07T14:54:02;99370.94;;;11.44;52.84
73151;BME280;61354;50.758;6.106;2024-03-07T14:56:47;99361.69;;;11.25;53.55
73151;BME280;61354;50.758;6.106;2024-03-07T14:59:31;99349.34;;;11.38;53.00
73151;BME280;61354;50.758;6.106;2024-03-07T15:02:17;99363.97;;;11.51;52.15
73151;BME280;61354;50.758;6.106;2024-03-07T15:05:01;99342.75;;;11.14;52.67
73151;BME280;61354;50.758;6.106;2024-03-07T15:07:46;99346.53;;;11.22;52.01
73151;BME280;61354;50.758;6.106;2024-03-07T15:10:34;99353.94;;;11.02;52.52
73151;BME280;61354;50.758;6.106;2024-03-07T15:13:37;99352.50;;;10.92;52.89
73151;BME280;61354;50.758;6.106;2024-03-07T15:16:21;99347.34;;;11.23;51.98
73151;BME280;61354;50.758;6.106;2024-03-07T15:19:08;99349.34;;;11.54;51.82
73151;BME280;61354;50.758;6.106;2024-03-07T15:21:53;99331.41;;;11.83;51.83
73151;BME280;61354;50.758;6.106;2024-03-07T15:24:37;99330.69;;;11.54;52.84